createdAt,value
2017-12-28T00:00:10.532Z,955.84
2017-12-28T00:01:20.241Z,955.85
2017-12-28T00:02:30.807Z,955.78
2017-12-28T00:03:40.787Z,955.83
2017-12-28T00:04:50.845Z,955.83
2017-12-28T00:06:00.553Z,955.76
2017-12-28T00:07:10.271Z,955.71
2017-12-28T00:08:20.250Z,955.72
2017-12-28T00:09:29.696Z,955.71
2017-12-28T00:10:39.681Z,955.73
2017-12-28T00:11:49.657Z,955.73
2017-12-28T00:12:59.636Z,955.76
2017-12-28T00:14:09.355Z,955.73
2017-12-28T00:15:19.326Z,955.75
2017-12-28T00:16:28.777Z,955.73
2017-12-28T00:17:38.484Z,955.73
2017-12-28T00:18:48.462Z,955.76
2017-12-28T00:19:58.174Z,955.71
2017-12-28T00:21:08.149Z,955.68
2017-12-28T00:22:18.132Z,955.73
2017-12-28T00:23:27.851Z,955.73
2017-12-28T00:24:37.843Z,955.73
2017-12-28T00:25:47.552Z,955.73
2017-12-28T00:26:57.526Z,955.75
2017-12-28T00:28:07.506Z,955.76
2017-12-28T00:29:17.482Z,955.78
2017-12-28T00:30:27.457Z,955.75
2017-12-28T00:31:37.175Z,955.75
2017-12-28T00:32:47.149Z,955.72
2017-12-28T00:33:57.130Z,955.7
2017-12-28T00:35:07.105Z,955.71
2017-12-28T00:36:17.080Z,955.72
2017-12-28T00:37:27.059Z,955.69
2017-12-28T00:38:36.773Z,955.74
2017-12-28T00:39:46.755Z,955.68
2017-12-28T00:40:56.202Z,955.68
2017-12-28T00:42:05.919Z,955.67
2017-12-28T00:43:15.642Z,955.66
2017-12-28T00:44:25.620Z,955.63
2017-12-28T00:45:35.601Z,955.66
2017-12-28T00:46:45.049Z,955.63
2017-12-28T00:47:55.031Z,955.6
2017-12-28T00:49:04.741Z,955.63
2017-12-28T00:50:14.462Z,955.63
2017-12-28T00:51:24.438Z,955.61
2017-12-28T00:52:34.418Z,955.63
2017-12-28T00:53:44.393Z,955.58
2017-12-28T00:54:54.369Z,955.57
2017-12-28T00:56:04.345Z,955.62
2017-12-28T00:57:13.790Z,955.59
2017-12-28T00:58:23.501Z,955.57
2017-12-28T00:59:33.477Z,955.59
2017-12-28T01:00:43.189Z,955.57
2017-12-28T01:01:53.164Z,955.54
2017-12-28T01:03:03.138Z,955.55
2017-12-28T01:04:13.115Z,955.52
2017-12-28T01:05:23.094Z,955.52
2017-12-28T01:06:32.813Z,955.48
2017-12-28T01:07:42.522Z,955.47
2017-12-28T01:08:52.513Z,955.51
2017-12-28T01:10:02.486Z,955.45
2017-12-28T01:11:12.204Z,955.46
2017-12-28T01:12:24.181Z,955.43
2017-12-28T01:13:33.896Z,955.42
2017-12-28T01:14:43.870Z,955.42
2017-12-28T01:15:53.846Z,955.37
2017-12-28T01:17:03.825Z,955.43
2017-12-28T01:18:13.797Z,955.44
2017-12-28T01:19:23.505Z,955.45
2017-12-28T01:20:33.217Z,955.45
2017-12-28T01:21:43.196Z,955.45
2017-12-28T01:22:53.170Z,955.44
2017-12-28T01:24:03.145Z,955.4
2017-12-28T01:25:13.140Z,955.42
2017-12-28T01:26:23.115Z,955.39
2017-12-28T01:27:32.299Z,955.38
2017-12-28T01:28:42.012Z,955.37
2017-12-28T01:29:51.724Z,955.31
2017-12-28T01:31:01.704Z,955.31
2017-12-28T01:32:11.417Z,955.28
2017-12-28T01:33:21.133Z,955.29
2017-12-28T01:34:31.109Z,955.25
2017-12-28T01:35:41.080Z,955.3
2017-12-28T01:36:51.054Z,955.26
2017-12-28T01:38:01.027Z,955.25
2017-12-28T01:39:10.736Z,955.22
2017-12-28T01:40:20.446Z,955.23
2017-12-28T01:41:30.160Z,955.19
2017-12-28T01:42:39.871Z,955.16
2017-12-28T01:43:49.587Z,955.16
2017-12-28T01:44:59.567Z,955.15
2017-12-28T01:46:09.011Z,955.17
2017-12-28T01:47:18.727Z,955.15
2017-12-28T01:48:28.438Z,955.13
2017-12-28T01:49:38.413Z,955.11
2017-12-28T01:50:48.123Z,955.12
2017-12-28T01:51:57.837Z,955.16
2017-12-28T01:53:07.821Z,955.11
2017-12-28T01:54:17.802Z,955.09
2017-12-28T01:55:27.773Z,955.08
2017-12-28T01:56:37.764Z,955.03
2017-12-28T01:57:47.475Z,955.04
2017-12-28T01:58:57.446Z,955.06
2017-12-28T02:00:07.428Z,955.02
2017-12-28T02:01:17.137Z,955.01
2017-12-28T02:02:26.582Z,955.02
2017-12-28T02:03:36.556Z,955.01
2017-12-28T02:04:46.263Z,954.97
2017-12-28T02:05:56.243Z,955.01
2017-12-28T02:07:05.954Z,955.02
2017-12-28T02:08:15.662Z,954.96
2017-12-28T02:09:25.638Z,954.98
2017-12-28T02:10:35.355Z,954.98
2017-12-28T02:11:45.326Z,954.95
2017-12-28T02:12:55.306Z,955
2017-12-28T02:14:05.018Z,954.95
2017-12-28T02:15:14.751Z,954.94
2017-12-28T02:16:24.506Z,954.94
2017-12-28T02:17:34.482Z,954.91
2017-12-28T02:18:44.191Z,954.91
2017-12-28T02:19:54.169Z,954.88
2017-12-28T02:21:04.141Z,954.91
2017-12-28T02:22:14.121Z,954.92
2017-12-28T02:23:23.835Z,954.93
2017-12-28T02:24:33.815Z,954.92
2017-12-28T02:25:43.791Z,954.94
2017-12-28T02:26:53.765Z,954.87
2017-12-28T02:28:03.473Z,954.9
2017-12-28T02:29:13.188Z,954.9
2017-12-28T02:30:23.167Z,954.89
2017-12-28T02:31:32.885Z,954.92
2017-12-28T02:32:42.916Z,954.94
2017-12-28T02:33:52.892Z,954.92
2017-12-28T02:35:02.868Z,954.88
2017-12-28T02:36:12.051Z,954.9
2017-12-28T02:37:21.760Z,954.84
2017-12-28T02:38:31.736Z,954.79
2017-12-28T02:39:41.445Z,954.8
2017-12-28T02:40:51.431Z,954.81
2017-12-28T02:42:01.408Z,954.84
2017-12-28T02:43:10.857Z,954.81
2017-12-28T02:44:20.567Z,954.76
2017-12-28T02:45:30.546Z,954.78
2017-12-28T02:46:40.521Z,954.77
2017-12-28T02:47:50.230Z,954.73
2017-12-28T02:49:00.211Z,954.73
2017-12-28T02:50:09.933Z,954.72
2017-12-28T02:51:19.912Z,954.66
2017-12-28T02:52:29.891Z,954.67
2017-12-28T02:53:39.873Z,954.65
2017-12-28T02:54:49.847Z,954.65
2017-12-28T02:55:59.564Z,954.63
2017-12-28T02:57:09.553Z,954.59
2017-12-28T02:58:19.527Z,954.58
2017-12-28T02:59:28.973Z,954.59
2017-12-28T03:00:38.951Z,954.62
2017-12-28T03:01:48.923Z,954.58
2017-12-28T03:02:58.897Z,954.57
2017-12-28T03:04:08.872Z,954.54
2017-12-28T03:05:18.585Z,954.55
2017-12-28T03:06:28.559Z,954.57
2017-12-28T03:07:37.749Z,954.54
2017-12-28T03:08:47.195Z,954.53
2017-12-28T03:09:57.173Z,954.51
2017-12-28T03:11:06.888Z,954.49
2017-12-28T03:12:16.601Z,954.49
2017-12-28T03:13:26.579Z,954.53
2017-12-28T03:14:36.565Z,954.44
2017-12-28T03:15:46.536Z,954.42
2017-12-28T03:16:56.511Z,954.41
2017-12-28T03:18:06.223Z,954.4
2017-12-28T03:19:15.935Z,954.45
2017-12-28T03:20:25.653Z,954.45
2017-12-28T03:21:35.629Z,954.42
2017-12-28T03:22:45.075Z,954.42
2017-12-28T03:23:55.099Z,954.45
2017-12-28T03:25:05.074Z,954.39
2017-12-28T03:26:15.247Z,954.42
2017-12-28T03:27:25.219Z,954.38
2017-12-28T03:28:34.929Z,954.4
2017-12-28T03:29:44.641Z,954.4
2017-12-28T03:30:54.086Z,954.41
2017-12-28T03:32:04.076Z,954.4
2017-12-28T03:33:13.789Z,954.39
2017-12-28T03:34:23.765Z,954.35
2017-12-28T03:35:33.742Z,954.35
2017-12-28T03:36:43.718Z,954.37
2017-12-28T03:37:53.996Z,954.34
2017-12-28T03:39:03.707Z,954.35
2017-12-28T03:40:13.689Z,954.35
2017-12-28T03:41:23.663Z,954.34
2017-12-28T03:42:33.375Z,954.33
2017-12-28T03:43:43.084Z,954.35
2017-12-28T03:44:53.065Z,954.34
2017-12-28T03:46:03.040Z,954.32
2017-12-28T03:47:12.749Z,954.3
2017-12-28T03:48:22.198Z,954.27
2017-12-28T03:49:32.174Z,954.26
2017-12-28T03:50:41.887Z,954.26
2017-12-28T03:51:51.865Z,954.29
2017-12-28T03:53:01.839Z,954.26
2017-12-28T03:54:11.811Z,954.28
2017-12-28T03:55:21.784Z,954.23
2017-12-28T03:56:31.495Z,954.21
2017-12-28T03:57:40.947Z,954.2
2017-12-28T03:58:50.667Z,954.19
2017-12-28T04:00:00.377Z,954.18
2017-12-28T04:03:42.667Z,954.2
2017-12-28T04:04:52.643Z,954.13
2017-12-28T04:06:02.353Z,954.13
2017-12-28T04:07:12.060Z,954.09
2017-12-28T04:08:22.037Z,954.1
2017-12-28T04:09:32.015Z,954.1
2017-12-28T04:10:42.016Z,954.11
2017-12-28T04:11:51.729Z,954.11
2017-12-28T04:13:01.703Z,954.12
2017-12-28T04:14:11.159Z,954.12
2017-12-28T04:15:20.610Z,954.1
2017-12-28T04:16:30.324Z,954.11
2017-12-28T04:17:40.301Z,954.09
2017-12-28T04:18:50.006Z,954.1
2017-12-28T04:19:59.985Z,954.11
2017-12-28T04:21:09.960Z,954.11
2017-12-28T04:22:19.674Z,954.11
2017-12-28T04:23:29.692Z,954.07
2017-12-28T04:24:39.668Z,954.06
2017-12-28T04:25:49.646Z,954.07
2017-12-28T04:26:59.645Z,954.09
2017-12-28T04:28:09.361Z,954.08
2017-12-28T04:29:19.334Z,954.04
2017-12-28T04:30:29.306Z,954.04
2017-12-28T04:31:39.283Z,954.03
2017-12-28T04:32:48.996Z,954.05
2017-12-28T04:33:58.980Z,954.02
2017-12-28T04:35:08.961Z,954.04
2017-12-28T04:36:18.678Z,954.07
2017-12-28T04:37:28.695Z,954.06
2017-12-28T04:38:38.671Z,954.05
2017-12-28T04:39:48.656Z,954.07
2017-12-28T04:40:58.637Z,954.03
2017-12-28T04:42:08.086Z,954.05
2017-12-28T04:43:18.107Z,953.99
2017-12-28T04:44:28.081Z,954.04
2017-12-28T04:45:37.789Z,954.08
2017-12-28T04:46:47.760Z,954.04
2017-12-28T04:47:57.741Z,954.03
2017-12-28T04:49:07.719Z,954.02
2017-12-28T04:50:17.430Z,954.01
2017-12-28T04:51:27.407Z,954
2017-12-28T04:52:36.589Z,953.98
2017-12-28T04:53:46.565Z,953.98
2017-12-28T04:54:56.547Z,953.95
2017-12-28T04:56:06.528Z,953.96
2017-12-28T04:57:16.594Z,953.95
2017-12-28T04:58:26.566Z,953.99
2017-12-28T04:59:36.541Z,953.95
2017-12-28T05:00:46.256Z,953.96
2017-12-28T05:01:56.235Z,954
2017-12-28T05:03:05.948Z,953.99
2017-12-28T05:04:15.660Z,953.98
2017-12-28T05:05:25.633Z,953.99
2017-12-28T05:06:35.612Z,953.97
2017-12-28T05:07:45.587Z,953.98
2017-12-28T05:08:55.041Z,953.96
2017-12-28T05:10:05.028Z,953.99
2017-12-28T05:11:15.002Z,953.95
2017-12-28T05:12:24.983Z,953.93
2017-12-28T05:13:34.692Z,953.96
2017-12-28T05:14:44.668Z,953.96
2017-12-28T05:15:54.646Z,953.93
2017-12-28T05:17:04.356Z,953.93
2017-12-28T05:18:14.081Z,953.92
2017-12-28T05:19:23.793Z,953.92
2017-12-28T05:20:33.772Z,953.95
2017-12-28T05:21:43.748Z,953.94
2017-12-28T05:22:53.728Z,953.92
2017-12-28T05:24:03.447Z,953.95
2017-12-28T05:25:13.163Z,953.94
2017-12-28T05:26:23.141Z,953.94
2017-12-28T05:27:33.113Z,953.93
2017-12-28T05:28:42.560Z,953.94
2017-12-28T05:29:52.533Z,953.95
2017-12-28T05:31:02.508Z,953.91
2017-12-28T05:32:12.217Z,953.97
2017-12-28T05:33:21.935Z,953.95
2017-12-28T05:34:31.644Z,953.96
2017-12-28T05:35:41.360Z,953.97
2017-12-28T05:36:51.393Z,953.96
2017-12-28T05:38:01.110Z,953.92
2017-12-28T05:39:10.819Z,953.95
2017-12-28T05:40:20.269Z,953.98
2017-12-28T05:41:30.244Z,953.97
2017-12-28T05:42:39.960Z,954.01
2017-12-28T05:43:49.669Z,953.97
2017-12-28T05:44:59.649Z,953.98
2017-12-28T05:46:09.622Z,954
2017-12-28T05:47:19.601Z,953.99
2017-12-28T05:48:29.576Z,954
2017-12-28T05:49:39.025Z,953.98
2017-12-28T05:50:49.003Z,953.98
2017-12-28T05:51:58.980Z,953.95
2017-12-28T05:53:08.976Z,953.94
2017-12-28T05:54:18.680Z,953.97
2017-12-28T05:55:28.663Z,953.98
2017-12-28T05:56:38.373Z,953.95
2017-12-28T05:57:48.343Z,953.95
2017-12-28T05:58:58.329Z,953.96
2017-12-28T06:00:08.319Z,953.93
2017-12-28T06:01:18.300Z,953.91
2017-12-28T06:02:28.280Z,953.88
2017-12-28T06:03:38.264Z,953.87
2017-12-28T06:04:48.284Z,953.87
2017-12-28T06:05:58.002Z,953.86
2017-12-28T06:07:07.982Z,953.87
2017-12-28T06:08:17.956Z,953.87
2017-12-28T06:09:27.672Z,953.89
2017-12-28T06:10:37.381Z,953.88
2017-12-28T06:11:47.354Z,953.86
2017-12-28T06:12:57.334Z,953.88
2017-12-28T06:14:07.310Z,953.84
2017-12-28T06:15:17.019Z,953.85
2017-12-28T06:16:26.997Z,953.83
2017-12-28T06:17:36.446Z,953.85
2017-12-28T06:18:46.432Z,953.83
2017-12-28T06:19:56.150Z,953.84
2017-12-28T06:21:06.126Z,953.87
2017-12-28T06:22:16.104Z,953.89
2017-12-28T06:23:26.086Z,953.85
2017-12-28T06:24:36.069Z,953.9
2017-12-28T06:25:45.779Z,953.91
2017-12-28T06:26:55.490Z,953.92
2017-12-28T06:28:05.209Z,953.91
2017-12-28T06:29:14.916Z,953.88
2017-12-28T06:30:24.893Z,953.86
2017-12-28T06:31:34.868Z,953.86
2017-12-28T06:32:44.850Z,953.87
2017-12-28T06:33:54.829Z,953.88
2017-12-28T06:35:04.816Z,953.88
2017-12-28T06:36:14.551Z,953.9
2017-12-28T06:37:24.008Z,953.9
2017-12-28T06:38:33.726Z,953.91
2017-12-28T06:39:43.703Z,953.9
2017-12-28T06:40:53.676Z,953.91
2017-12-28T06:42:03.658Z,953.89
2017-12-28T06:43:13.636Z,953.9
2017-12-28T06:44:23.615Z,953.88
2017-12-28T06:45:33.592Z,953.86
2017-12-28T06:46:43.577Z,953.87
2017-12-28T06:47:53.556Z,953.86
2017-12-28T06:49:03.533Z,953.85
2017-12-28T06:50:13.510Z,953.84
2017-12-28T06:51:23.489Z,953.84
2017-12-28T06:52:34.302Z,953.84
2017-12-28T06:53:44.275Z,953.84
2017-12-28T06:54:54.256Z,953.83
2017-12-28T06:56:04.240Z,953.83
2017-12-28T06:57:13.951Z,953.84
2017-12-28T06:58:23.986Z,953.84
2017-12-28T06:59:33.964Z,953.84
2017-12-28T07:00:43.681Z,953.85
2017-12-28T07:01:53.662Z,953.85
2017-12-28T07:03:03.637Z,953.85
2017-12-28T07:04:13.621Z,953.84
2017-12-28T07:05:23.604Z,953.85
2017-12-28T07:06:33.581Z,953.85
2017-12-28T07:07:43.294Z,953.85
2017-12-28T07:08:53.015Z,953.88
2017-12-28T07:10:04.734Z,953.83
2017-12-28T07:11:14.444Z,953.82
2017-12-28T07:12:24.419Z,953.86
2017-12-28T07:13:34.400Z,953.82
2017-12-28T07:14:44.378Z,953.85
2017-12-28T07:15:54.400Z,953.84
2017-12-28T07:17:04.379Z,953.83
2017-12-28T07:18:14.354Z,953.81
2017-12-28T07:19:24.333Z,953.81
2017-12-28T07:20:34.308Z,953.81
2017-12-28T07:21:44.018Z,953.8
2017-12-28T07:22:53.730Z,953.82
2017-12-28T07:24:03.440Z,953.79
2017-12-28T07:25:13.155Z,953.8
2017-12-28T07:26:23.133Z,953.81
2017-12-28T07:27:32.845Z,953.83
2017-12-28T07:28:42.820Z,953.83
2017-12-28T07:29:52.267Z,953.82
2017-12-28T07:31:02.245Z,953.85
2017-12-28T07:32:11.955Z,953.86
2017-12-28T07:33:21.671Z,953.88
2017-12-28T07:34:31.392Z,953.85
2017-12-28T07:35:41.382Z,953.91
2017-12-28T07:36:51.361Z,953.9
2017-12-28T07:38:01.074Z,953.88
2017-12-28T07:39:11.046Z,953.86
2017-12-28T07:40:20.756Z,953.87
2017-12-28T07:41:30.471Z,953.91
2017-12-28T07:42:40.448Z,953.91
2017-12-28T07:43:50.430Z,953.9
2017-12-28T07:45:00.407Z,953.92
2017-12-28T07:46:10.122Z,953.89
2017-12-28T07:47:20.102Z,953.95
2017-12-28T07:48:29.815Z,953.96
2017-12-28T07:49:39.530Z,953.95
2017-12-28T07:50:51.242Z,953.96
2017-12-28T07:52:01.003Z,953.96
2017-12-28T07:53:10.712Z,953.94
2017-12-28T07:54:20.686Z,953.95
2017-12-28T07:55:30.666Z,953.96
2017-12-28T07:56:40.641Z,953.95
2017-12-28T07:57:50.622Z,953.92
2017-12-28T07:59:00.601Z,953.98
2017-12-28T08:00:10.318Z,954.02
2017-12-28T08:01:20.038Z,953.98
2017-12-28T08:02:30.016Z,953.95
2017-12-28T08:03:39.733Z,953.94
2017-12-28T08:04:49.450Z,953.96
2017-12-28T08:05:59.437Z,953.95
2017-12-28T08:07:09.412Z,953.94
2017-12-28T08:08:19.392Z,953.94
2017-12-28T08:09:29.365Z,953.97
2017-12-28T08:10:39.344Z,953.96
2017-12-28T08:11:49.323Z,953.97
2017-12-28T08:12:59.299Z,953.96
2017-12-28T08:14:09.011Z,953.95
2017-12-28T08:15:18.999Z,953.96
2017-12-28T08:16:28.714Z,953.96
2017-12-28T08:17:38.426Z,953.98
2017-12-28T08:18:47.878Z,953.93
2017-12-28T08:19:57.596Z,953.95
2017-12-28T08:21:07.585Z,953.97
2017-12-28T08:22:17.299Z,953.98
2017-12-28T08:23:27.285Z,953.97
2017-12-28T08:24:36.997Z,953.94
2017-12-28T08:25:46.976Z,954
2017-12-28T08:26:56.690Z,954.02
2017-12-28T08:28:06.672Z,953.97
2017-12-28T08:29:16.384Z,954.03
2017-12-28T08:30:25.568Z,954.01
2017-12-28T08:31:35.555Z,954
2017-12-28T08:32:45.273Z,953.99
2017-12-28T08:33:54.996Z,953.99
2017-12-28T08:35:04.975Z,954.02
2017-12-28T08:36:14.956Z,953.97
2017-12-28T08:37:24.934Z,954.06
2017-12-28T08:38:34.381Z,954.08
2017-12-28T08:39:44.365Z,954.04
2017-12-28T08:40:54.343Z,954.06
2017-12-28T08:42:04.323Z,954.07
2017-12-28T08:43:14.297Z,954.07
2017-12-28T08:44:24.274Z,954.06
2017-12-28T08:45:33.988Z,954.12
2017-12-28T08:46:43.709Z,954.1
2017-12-28T08:47:52.895Z,954.04
2017-12-28T08:49:04.660Z,954.04
2017-12-28T08:50:14.111Z,954.03
2017-12-28T08:51:23.824Z,954.06
2017-12-28T08:52:33.540Z,954.03
2017-12-28T08:53:42.727Z,954
2017-12-28T08:54:52.200Z,954.08
2017-12-28T08:56:02.178Z,954.03
2017-12-28T08:57:11.897Z,954.08
2017-12-28T08:58:21.937Z,954.04
2017-12-28T08:59:31.653Z,954.07
2017-12-28T09:00:44.588Z,954.08
2017-12-28T09:01:54.040Z,954.08
2017-12-28T09:03:04.016Z,954.04
2017-12-28T09:04:13.731Z,954.05
2017-12-28T09:05:23.454Z,954.06
2017-12-28T09:06:34.586Z,954.07
2017-12-28T09:07:44.563Z,954.05
2017-12-28T09:08:54.548Z,954.08
2017-12-28T09:10:04.263Z,954.06
2017-12-28T09:11:14.241Z,954.06
2017-12-28T09:12:24.056Z,954.11
2017-12-28T09:13:34.039Z,954.09
2017-12-28T09:14:43.223Z,954.09
2017-12-28T09:15:53.203Z,954.14
2017-12-28T09:17:02.921Z,954.1
2017-12-28T09:18:12.898Z,954.15
2017-12-28T09:19:22.877Z,954.13
2017-12-28T09:20:32.602Z,954.14
2017-12-28T09:21:42.315Z,954.16
2017-12-28T09:22:52.292Z,954.17
2017-12-28T09:24:02.272Z,954.14
2017-12-28T09:25:11.990Z,954.15
2017-12-28T09:26:21.971Z,954.11
2017-12-28T09:27:31.684Z,954.18
2017-12-28T09:28:41.661Z,954.14
2017-12-28T09:29:51.637Z,954.14
2017-12-28T09:31:01.391Z,954.15
2017-12-28T09:32:11.112Z,954.16
2017-12-28T09:33:21.093Z,954.16
2017-12-28T09:34:31.072Z,954.16
2017-12-28T09:35:41.054Z,954.18
2017-12-28T09:36:50.812Z,954.15
2017-12-28T09:38:00.575Z,954.21
2017-12-28T09:39:10.026Z,954.19
2017-12-28T09:40:20.007Z,954.24
2017-12-28T09:41:29.982Z,954.23
2017-12-28T09:42:39.693Z,954.18
2017-12-28T09:43:49.670Z,954.16
2017-12-28T09:44:59.647Z,954.16
2017-12-28T09:46:09.628Z,954.16
2017-12-28T09:47:19.610Z,954.2
2017-12-28T09:48:29.592Z,954.18
2017-12-28T09:49:39.568Z,954.22
2017-12-28T09:50:49.279Z,954.21
2017-12-28T09:51:59.257Z,954.22
2017-12-28T09:53:08.708Z,954.2
2017-12-28T09:54:18.421Z,954.17
2017-12-28T09:55:28.399Z,954.23
2017-12-28T09:56:38.383Z,954.2
2017-12-28T09:57:48.363Z,954.2
2017-12-28T09:58:58.078Z,954.24
2017-12-28T10:00:08.056Z,954.26
2017-12-28T10:01:17.773Z,954.25
2017-12-28T10:02:27.496Z,954.24
2017-12-28T10:03:37.209Z,954.29
2017-12-28T10:04:47.184Z,954.31
2017-12-28T10:05:57.164Z,954.29
2017-12-28T10:07:07.148Z,954.28
2017-12-28T10:08:16.864Z,954.31
2017-12-28T10:09:26.844Z,954.33
2017-12-28T10:10:36.557Z,954.29
2017-12-28T10:11:46.761Z,954.3
2017-12-28T10:12:56.739Z,954.3
2017-12-28T10:14:06.452Z,954.26
2017-12-28T10:15:16.166Z,954.28
2017-12-28T10:16:26.149Z,954.28
2017-12-28T10:17:35.869Z,954.28
2017-12-28T10:18:45.850Z,954.31
2017-12-28T10:19:55.569Z,954.3
2017-12-28T10:21:05.552Z,954.31
2017-12-28T10:22:15.263Z,954.3
2017-12-28T10:23:25.242Z,954.29
2017-12-28T10:24:35.268Z,954.34
2017-12-28T10:25:45.019Z,954.31
2017-12-28T10:26:54.746Z,954.29
2017-12-28T10:28:04.465Z,954.31
2017-12-28T10:29:14.499Z,954.33
2017-12-28T10:30:24.482Z,954.35
2017-12-28T10:31:34.193Z,954.33
2017-12-28T10:32:44.174Z,954.32
2017-12-28T10:33:54.151Z,954.37
2017-12-28T10:35:04.136Z,954.35
2017-12-28T10:36:14.113Z,954.31
2017-12-28T10:37:24.091Z,954.35
2017-12-28T10:38:34.068Z,954.35
2017-12-28T10:39:44.042Z,954.41
2017-12-28T10:40:54.029Z,954.36
2017-12-28T10:42:03.746Z,954.36
2017-12-28T10:43:13.722Z,954.36
2017-12-28T10:44:23.704Z,954.37
2017-12-28T10:45:33.686Z,954.37
2017-12-28T10:46:43.132Z,954.42
2017-12-28T10:47:52.844Z,954.39
2017-12-28T10:49:02.840Z,954.39
2017-12-28T10:50:12.556Z,954.39
2017-12-28T10:51:22.534Z,954.39
2017-12-28T10:52:32.511Z,954.4
2017-12-28T10:53:42.567Z,954.43
2017-12-28T10:54:52.552Z,954.44
2017-12-28T10:56:02.544Z,954.47
2017-12-28T10:57:12.270Z,954.47
2017-12-28T10:58:21.987Z,954.48
2017-12-28T10:59:31.964Z,954.44
2017-12-28T11:00:41.944Z,954.47
2017-12-28T11:01:51.655Z,954.46
2017-12-28T11:03:01.990Z,954.48
2017-12-28T11:04:11.972Z,954.42
2017-12-28T11:05:21.683Z,954.46
2017-12-28T11:06:31.662Z,954.42
2017-12-28T11:07:41.371Z,954.43
2017-12-28T11:08:51.089Z,954.42
2017-12-28T11:10:01.101Z,954.47
2017-12-28T11:11:10.551Z,954.43
2017-12-28T11:12:20.543Z,954.42
2017-12-28T11:13:30.526Z,954.41
2017-12-28T11:14:44.007Z,954.39
2017-12-28T11:15:53.984Z,954.4
2017-12-28T11:17:03.710Z,954.41
2017-12-28T11:18:13.427Z,954.41
2017-12-28T11:19:23.146Z,954.42
2017-12-28T11:20:33.130Z,954.45
2017-12-28T11:21:43.107Z,954.45
2017-12-28T11:22:53.090Z,954.45
2017-12-28T11:24:02.551Z,954.44
2017-12-28T11:25:12.267Z,954.45
2017-12-28T11:26:21.988Z,954.39
2017-12-28T11:27:31.701Z,954.43
2017-12-28T11:28:41.684Z,954.43
2017-12-28T11:29:51.399Z,954.44
2017-12-28T11:31:01.116Z,954.43
2017-12-28T11:32:11.097Z,954.49
2017-12-28T11:33:21.079Z,954.46
2017-12-28T11:34:31.055Z,954.43
2017-12-28T11:35:40.774Z,954.42
2017-12-28T11:36:50.260Z,954.45
2017-12-28T11:38:00.255Z,954.45
2017-12-28T11:39:09.441Z,954.41
2017-12-28T11:40:18.894Z,954.44
2017-12-28T11:41:28.609Z,954.46
2017-12-28T11:42:38.061Z,954.51
2017-12-28T11:43:47.771Z,954.51
2017-12-28T11:44:57.485Z,954.49
2017-12-28T11:46:06.990Z,954.51
2017-12-28T11:47:16.755Z,954.5
2017-12-28T11:48:26.730Z,954.52
2017-12-28T11:49:36.710Z,954.54
2017-12-28T11:50:46.681Z,954.52
2017-12-28T11:51:56.671Z,954.51
2017-12-28T11:53:06.385Z,954.5
2017-12-28T11:54:16.360Z,954.52
2017-12-28T11:55:26.338Z,954.46
2017-12-28T11:56:36.314Z,954.46
2017-12-28T11:57:46.291Z,954.47
2017-12-28T11:58:56.265Z,954.48
2017-12-28T12:00:05.713Z,954.48
2017-12-28T12:01:15.690Z,954.47
2017-12-28T12:02:25.671Z,954.46
2017-12-28T12:03:35.676Z,954.45
2017-12-28T12:04:45.649Z,954.46
2017-12-28T12:05:55.624Z,954.49
2017-12-28T12:07:05.073Z,954.48
2017-12-28T12:08:15.054Z,954.52
2017-12-28T12:09:25.037Z,954.52
2017-12-28T12:10:35.011Z,954.57
2017-12-28T12:11:44.725Z,954.56
2017-12-28T12:12:54.701Z,954.6
2017-12-28T12:14:04.418Z,954.61
2017-12-28T12:15:14.141Z,954.57
2017-12-28T12:16:23.857Z,954.58
2017-12-28T12:17:33.834Z,954.58
2017-12-28T12:18:43.810Z,954.56
2017-12-28T12:19:53.785Z,954.58
2017-12-28T12:21:03.764Z,954.61
2017-12-28T12:22:13.475Z,954.57
2017-12-28T12:23:23.452Z,954.61
2017-12-28T12:24:33.165Z,954.63
2017-12-28T12:25:42.349Z,954.69
2017-12-28T12:26:52.346Z,954.65
2017-12-28T12:28:01.798Z,954.66
2017-12-28T12:29:11.556Z,954.63
2017-12-28T12:30:21.543Z,954.64
2017-12-28T12:31:31.532Z,954.61
2017-12-28T12:32:41.522Z,954.62
2017-12-28T12:33:51.508Z,954.62
2017-12-28T12:35:01.520Z,954.64
2017-12-28T12:36:11.798Z,954.6
2017-12-28T12:37:21.251Z,954.59
2017-12-28T12:38:30.968Z,954.59
2017-12-28T12:39:40.949Z,954.6
2017-12-28T12:40:50.945Z,954.63
2017-12-28T12:42:00.920Z,954.62
2017-12-28T12:43:10.106Z,954.64
2017-12-28T12:44:19.819Z,954.66
2017-12-28T12:45:29.533Z,954.65
2017-12-28T12:46:39.244Z,954.71
2017-12-28T12:47:49.228Z,954.71
2017-12-28T12:48:59.212Z,954.72
2017-12-28T12:50:08.931Z,954.7
2017-12-28T12:51:18.642Z,954.73
2017-12-28T12:52:28.625Z,954.74
2017-12-28T12:53:38.601Z,954.75
2017-12-28T12:54:48.585Z,954.78
2017-12-28T12:55:58.559Z,954.74
2017-12-28T12:57:08.560Z,954.74
2017-12-28T12:58:18.276Z,954.77
2017-12-28T12:59:27.989Z,954.77
2017-12-28T13:00:37.705Z,954.81
2017-12-28T13:01:47.692Z,954.84
2017-12-28T13:02:57.402Z,954.81
2017-12-28T13:04:06.854Z,954.84
2017-12-28T13:05:16.833Z,954.88
2017-12-28T13:06:26.809Z,954.92
2017-12-28T13:07:36.529Z,954.91
2017-12-28T13:08:46.243Z,954.87
2017-12-28T13:09:55.956Z,954.89
2017-12-28T13:11:05.413Z,954.93
2017-12-28T13:12:15.417Z,954.93
2017-12-28T13:13:25.131Z,954.94
2017-12-28T13:14:35.112Z,954.94
2017-12-28T13:15:45.091Z,954.93
2017-12-28T13:16:54.546Z,954.95
2017-12-28T13:18:04.533Z,954.94
2017-12-28T13:19:14.543Z,954.97
2017-12-28T13:20:24.264Z,955.01
2017-12-28T13:21:33.979Z,955.04
2017-12-28T13:22:43.954Z,955.09
2017-12-28T13:23:53.931Z,955.05
2017-12-28T13:25:03.921Z,955.09
2017-12-28T13:26:13.956Z,955.11
2017-12-28T13:27:23.940Z,955.14
2017-12-28T13:28:33.920Z,955.13
2017-12-28T13:29:43.897Z,955.16
2017-12-28T13:30:53.616Z,955.16
2017-12-28T13:32:03.606Z,955.13
2017-12-28T13:33:13.595Z,955.14
2017-12-28T13:34:23.580Z,955.13
2017-12-28T13:35:33.563Z,955.15
2017-12-28T13:36:43.279Z,955.19
2017-12-28T13:37:53.267Z,955.19
2017-12-28T13:39:03.298Z,955.21
2017-12-28T13:40:13.017Z,955.2
2017-12-28T13:41:22.738Z,955.19
2017-12-28T13:42:32.720Z,955.24
2017-12-28T13:43:42.747Z,955.17
2017-12-28T13:44:52.736Z,955.24
2017-12-28T13:46:02.717Z,955.29
2017-12-28T13:47:12.170Z,955.29
2017-12-28T13:48:22.153Z,955.24
2017-12-28T13:49:31.916Z,955.24
2017-12-28T13:50:41.899Z,955.26
2017-12-28T13:51:51.351Z,955.23
2017-12-28T13:53:01.078Z,955.29
2017-12-28T13:54:11.057Z,955.29
2017-12-28T13:55:20.769Z,955.29
2017-12-28T13:56:30.479Z,955.29
2017-12-28T13:57:40.460Z,955.33
2017-12-28T13:58:49.914Z,955.3
2017-12-28T13:59:59.891Z,955.3
2017-12-28T14:01:09.876Z,955.3
2017-12-28T14:02:19.588Z,955.34
2017-12-28T14:03:29.304Z,955.36
2017-12-28T14:04:38.754Z,955.36
2017-12-28T14:05:48.735Z,955.33
2017-12-28T14:06:58.456Z,955.31
2017-12-28T14:08:08.435Z,955.31
2017-12-28T14:09:18.425Z,955.32
2017-12-28T14:10:28.153Z,955.34
2017-12-28T14:11:37.868Z,955.37
2017-12-28T14:12:47.853Z,955.41
2017-12-28T14:13:57.613Z,955.38
2017-12-28T14:15:07.598Z,955.44
2017-12-28T14:16:17.580Z,955.42
2017-12-28T14:17:27.607Z,955.43
2017-12-28T14:18:37.061Z,955.45
2017-12-28T14:19:47.038Z,955.45
2017-12-28T14:20:56.751Z,955.47
2017-12-28T14:22:06.731Z,955.46
2017-12-28T14:23:16.189Z,955.43
2017-12-28T14:24:26.170Z,955.48
2017-12-28T14:25:35.882Z,955.51
2017-12-28T14:26:45.655Z,955.5
2017-12-28T14:27:55.639Z,955.46
2017-12-28T14:29:05.387Z,955.47
2017-12-28T14:30:15.362Z,955.46
2017-12-28T14:31:25.351Z,955.45
2017-12-28T14:32:35.072Z,955.47
2017-12-28T14:33:45.055Z,955.44
2017-12-28T14:34:55.036Z,955.48
2017-12-28T14:36:05.017Z,955.46